createdAt,value
2018-10-03T00:02:38.945Z,100629.35
2018-10-03T00:07:31.673Z,100644.53
2018-10-03T00:12:24.340Z,100648.41
2018-10-03T00:17:17.001Z,100644.89
2018-10-03T00:22:09.614Z,100637.86
2018-10-03T00:27:02.258Z,100654.31
2018-10-03T00:31:54.882Z,100649.69
2018-10-03T00:36:47.546Z,100642.95
2018-10-03T00:41:41.206Z,100649.61
2018-10-03T00:46:33.947Z,100646.85
2018-10-03T00:51:26.535Z,100645.73
2018-10-03T00:56:19.237Z,100651.38
2018-10-03T01:01:11.868Z,100644.64
2018-10-03T01:06:04.487Z,100652.95
2018-10-03T01:10:57.109Z,100643.53
2018-10-03T01:15:49.782Z,100637.13
2018-10-03T01:20:42.549Z,100637.20
2018-10-03T01:25:35.167Z,100622.92
2018-10-03T01:30:27.775Z,100640.08
2018-10-03T01:35:20.495Z,100666.19
2018-10-03T01:40:13.137Z,100664.84
2018-10-03T01:45:05.780Z,100682.56
2018-10-03T01:49:58.374Z,100675.23
2018-10-03T01:54:50.999Z,100675.91
2018-10-03T01:59:43.591Z,100681.48
2018-10-03T02:04:36.249Z,100674.38
2018-10-03T02:09:28.891Z,100673.75
2018-10-03T02:14:21.782Z,100669.86
2018-10-03T02:19:14.442Z,100660.07
2018-10-03T02:24:07.259Z,100674.87
2018-10-03T02:28:59.902Z,100662.16
2018-10-03T02:33:52.528Z,100676.92
2018-10-03T02:38:45.143Z,100680.58
2018-10-03T02:43:38.090Z,100681.19
2018-10-03T02:48:33.142Z,100688.52
2018-10-03T02:53:25.905Z,100700.73
2018-10-03T02:58:18.678Z,100696.85
2018-10-03T03:03:11.470Z,100697.33
2018-10-03T03:08:04.499Z,100703.38
2018-10-03T03:12:57.330Z,100697.70
2018-10-03T03:17:50.006Z,100705.33
2018-10-03T03:22:42.655Z,100694.34
2018-10-03T03:27:35.406Z,100705.84
2018-10-03T03:32:28.011Z,100706.15
2018-10-03T03:37:21.140Z,100703.16
2018-10-03T03:42:13.807Z,100699.87
2018-10-03T03:47:06.581Z,100703.30
2018-10-03T03:51:59.210Z,100700.34
2018-10-03T03:56:51.859Z,100721.31
2018-10-03T04:01:44.425Z,100722.96
2018-10-03T04:06:37.118Z,100719.45
2018-10-03T04:11:29.811Z,100718.92
2018-10-03T04:16:22.501Z,100712.50
2018-10-03T04:21:15.087Z,100728.94
2018-10-03T04:26:07.719Z,100729.84
2018-10-03T04:31:00.337Z,100702.94
2018-10-03T04:35:52.958Z,100737.92
2018-10-03T04:40:45.705Z,100717.95
2018-10-03T04:45:38.438Z,100713.32
2018-10-03T04:50:31.179Z,100729.84
2018-10-03T04:55:23.790Z,100708.31
2018-10-03T05:00:16.524Z,100748.76
2018-10-03T05:05:09.248Z,100742.85
2018-10-03T05:10:01.927Z,100741.20
2018-10-03T05:14:54.564Z,100753.31
2018-10-03T05:19:47.194Z,100756.31
2018-10-03T05:24:39.794Z,100766.81
2018-10-03T05:29:32.491Z,100764.95
2018-10-03T05:34:25.111Z,100773.33
2018-10-03T05:39:17.747Z,100793.98
2018-10-03T05:44:11.018Z,100787.00
2018-10-03T05:49:03.669Z,100811.77
2018-10-03T05:53:56.310Z,100805.84
2018-10-03T05:58:48.820Z,100818.50
2018-10-03T06:03:41.320Z,100820.07
2018-10-03T06:08:33.971Z,100832.23
2018-10-03T06:13:26.582Z,100828.72
2018-10-03T06:18:19.205Z,100843.77
2018-10-03T06:23:11.821Z,100845.11
2018-10-03T06:28:04.583Z,100844.07
2018-10-03T06:32:57.204Z,100857.87
2018-10-03T06:37:49.872Z,100875.84
2018-10-03T06:42:42.694Z,100878.05
2018-10-03T06:47:35.301Z,100881.73
2018-10-03T06:52:27.966Z,100898.19
2018-10-03T06:57:20.726Z,100891.89
2018-10-03T07:02:13.481Z,100900.41
2018-10-03T07:07:06.114Z,100898.94
2018-10-03T07:11:58.800Z,100912.31
2018-10-03T07:16:51.457Z,100926.67
2018-10-03T07:21:44.171Z,100934.14
2018-10-03T07:26:36.795Z,100938.34
2018-10-03T07:31:29.466Z,100956.20
2018-10-03T07:36:22.279Z,100941.39
2018-10-03T07:41:14.971Z,100952.23
2018-10-03T07:46:07.979Z,100955.66
2018-10-03T07:51:01.135Z,100976.19
2018-10-03T07:55:54.092Z,100974.62
2018-10-03T08:00:46.786Z,100965.30
2018-10-03T08:05:39.497Z,100987.84
2018-10-03T08:10:32.381Z,101000.86
2018-10-03T08:15:25.135Z,101000.61
2018-10-03T08:20:17.795Z,101019.08
2018-10-03T08:25:10.455Z,101032.20
2018-10-03T08:30:03.480Z,101033.92
2018-10-03T08:34:56.226Z,101044.41
2018-10-03T08:39:48.850Z,101046.14
2018-10-03T08:44:41.512Z,101048.19
2018-10-03T08:49:34.379Z,101045.49
2018-10-03T08:54:26.979Z,101068.72
2018-10-03T08:59:19.627Z,101084.73
2018-10-03T09:04:12.287Z,101092.08
2018-10-03T09:09:07.748Z,101107.95
2018-10-03T09:14:00.332Z,101098.72
2018-10-03T09:18:52.998Z,101103.41
2018-10-03T09:23:45.639Z,101108.80
2018-10-03T09:28:38.370Z,101116.28
2018-10-03T09:33:30.995Z,101129.60
2018-10-03T09:38:23.645Z,101132.20
2018-10-03T09:43:16.393Z,101150.56
2018-10-03T09:48:09.045Z,101174.64
2018-10-03T09:53:01.735Z,101179.18
2018-10-03T09:57:54.386Z,101185.68
2018-10-03T10:02:47.247Z,101190.56
2018-10-03T10:07:39.919Z,101201.94
2018-10-03T10:12:32.702Z,101200.78
2018-10-03T10:17:25.636Z,101214.64
2018-10-03T10:22:18.414Z,101222.94
2018-10-03T10:27:11.110Z,101218.69
2018-10-03T10:32:03.845Z,101235.64
2018-10-03T10:36:56.595Z,101232.44
2018-10-03T10:41:49.489Z,101248.67
2018-10-03T10:46:42.419Z,101262.56
2018-10-03T10:51:35.118Z,101268.37
2018-10-03T10:56:27.786Z,101291.39
2018-10-03T11:01:20.395Z,101287.48
2018-10-03T11:06:13.107Z,101284.86
2018-10-03T11:11:05.744Z,101284.86
2018-10-03T11:15:58.592Z,101304.08
2018-10-03T11:20:51.198Z,101297.62
2018-10-03T11:25:43.820Z,101312.15
2018-10-03T11:30:36.547Z,101298.63
2018-10-03T11:35:29.370Z,101307.23
2018-10-03T11:40:22.047Z,101307.28
2018-10-03T11:45:14.686Z,101309.13
2018-10-03T11:50:07.359Z,101323.66
2018-10-03T11:55:00.043Z,101334.97
2018-10-03T11:59:52.708Z,101338.53
2018-10-03T12:04:45.371Z,101341.86
2018-10-03T12:09:38.000Z,101334.41
2018-10-03T12:14:30.692Z,101349.45
2018-10-03T12:19:23.630Z,101350.14
2018-10-03T12:24:16.294Z,101370.25
2018-10-03T12:29:09.002Z,101372.87
2018-10-03T12:34:01.855Z,101373.40
2018-10-03T12:38:55.030Z,101381.45
2018-10-03T12:43:47.778Z,101385.03
2018-10-03T12:48:40.566Z,101383.81
2018-10-03T12:53:33.158Z,101387.28
2018-10-03T12:58:25.854Z,101403.13
2018-10-03T13:03:18.502Z,101398.64
2018-10-03T13:08:11.200Z,101398.95
2018-10-03T13:13:03.856Z,101404.81
2018-10-03T13:17:56.502Z,101411.66
2018-10-03T13:22:49.282Z,101414.52
2018-10-03T13:27:41.972Z,101414.39
2018-10-03T13:32:34.646Z,101419.74
2018-10-03T13:37:27.314Z,101416.03
2018-10-03T13:42:19.933Z,101433.25
2018-10-03T13:47:12.702Z,101458.96
2018-10-03T13:52:05.894Z,101454.63
2018-10-03T13:56:58.739Z,101468.16
2018-10-03T14:01:51.508Z,101462.89
2018-10-03T14:06:44.346Z,101475.17
2018-10-03T14:11:36.990Z,101480.16
2018-10-03T14:16:29.740Z,101487.03
2018-10-03T14:21:22.576Z,101478.26
2018-10-03T14:26:15.436Z,101499.61
2018-10-03T14:31:08.962Z,101490.58
2018-10-03T14:36:01.587Z,101504.34
2018-10-03T14:40:54.334Z,101511.63
2018-10-03T14:45:47.015Z,101532.37
2018-10-03T14:50:39.711Z,101524.02
2018-10-03T14:55:32.380Z,101530.72
2018-10-03T15:00:25.143Z,101541.50
2018-10-03T15:05:17.871Z,101551.92
2018-10-03T15:10:10.667Z,101552.70
2018-10-03T15:15:03.374Z,101570.95
2018-10-03T15:25:05.351Z,101570.72
2018-10-03T15:29:58.194Z,101589.58
2018-10-03T15:34:50.838Z,101599.78
2018-10-03T15:39:43.533Z,101592.09
2018-10-03T15:44:36.288Z,101604.16
2018-10-03T15:49:28.979Z,101607.78
2018-10-03T15:54:21.775Z,101612.73
2018-10-03T15:59:14.527Z,101615.56
2018-10-03T16:04:07.477Z,101622.74
2018-10-03T16:09:00.187Z,101631.22
2018-10-03T16:13:52.885Z,101633.97
2018-10-03T16:18:45.489Z,101643.02
2018-10-03T16:23:38.150Z,101645.52
2018-10-03T16:28:30.762Z,101644.45
2018-10-03T16:33:23.507Z,101653.66
2018-10-03T16:38:16.146Z,101659.08
2018-10-03T16:43:08.786Z,101666.16
2018-10-03T16:48:01.479Z,101668.09
2018-10-03T16:52:55.844Z,101679.23
2018-10-03T16:57:48.721Z,101689.14
2018-10-03T17:02:41.777Z,101696.59
2018-10-03T17:07:34.315Z,101704.91
2018-10-03T17:12:27.966Z,101695.54
2018-10-03T17:17:20.690Z,101710.27
2018-10-03T17:22:13.274Z,101720.42
2018-10-03T17:27:05.990Z,101720.73
2018-10-03T17:31:58.634Z,101731.67
2018-10-03T17:36:53.131Z,101734.60
2018-10-03T17:41:45.984Z,101733.47
2018-10-03T17:46:38.503Z,101746.53
2018-10-03T17:51:31.389Z,101755.16
2018-10-03T17:56:24.083Z,101766.05
2018-10-03T18:01:16.858Z,101776.39
2018-10-03T18:06:09.474Z,101783.75
2018-10-03T18:11:02.184Z,101793.42
2018-10-03T18:15:54.851Z,101799.17
2018-10-03T18:20:48.077Z,101801.73
2018-10-03T18:25:40.768Z,101804.95
2018-10-03T18:30:33.543Z,101808.77
2018-10-03T18:35:26.190Z,101818.25
2018-10-03T18:40:18.896Z,101822.89
2018-10-03T18:45:11.794Z,101832.73
2018-10-03T18:50:05.834Z,101836.63
2018-10-03T18:54:58.458Z,101843.20
2018-10-03T18:59:51.152Z,101849.58
2018-10-03T19:04:43.869Z,101845.63
2018-10-03T19:09:36.561Z,101851.61
2018-10-03T19:14:29.532Z,101854.67
2018-10-03T19:19:22.178Z,101867.28
2018-10-03T19:24:14.891Z,101877.05
2018-10-03T19:29:07.540Z,101874.91
2018-10-03T19:34:00.214Z,101880.30
2018-10-03T19:38:52.955Z,101878.77
2018-10-03T19:43:46.817Z,101882.72
2018-10-03T19:48:39.620Z,101890.42
2018-10-03T19:53:34.988Z,101895.09
2018-10-03T19:58:27.755Z,101902.89
2018-10-03T20:03:20.600Z,101904.06
2018-10-03T20:08:13.302Z,101911.84
2018-10-03T20:13:05.994Z,101914.22
2018-10-03T20:17:58.894Z,101914.31
2018-10-03T20:22:51.589Z,101908.61
2018-10-03T20:27:44.646Z,101917.14
2018-10-03T20:32:37.655Z,101925.42
2018-10-03T20:37:30.658Z,101926.46
2018-10-03T20:42:23.782Z,101930.08
2018-10-03T20:47:16.791Z,101935.80
2018-10-03T20:52:09.786Z,101941.44
2018-10-03T20:57:02.893Z,101934.19
2018-10-03T21:01:55.899Z,101952.95
2018-10-03T21:06:48.769Z,101955.73
2018-10-03T21:11:42.223Z,101950.73
2018-10-03T21:16:35.250Z,101949.70
2018-10-03T21:21:28.197Z,101956.31
2018-10-03T21:26:21.155Z,101963.00
2018-10-03T21:31:14.192Z,101964.78
2018-10-03T21:36:07.320Z,101964.78
2018-10-03T21:41:00.292Z,101964.86
2018-10-03T21:45:53.234Z,101958.83
2018-10-03T21:50:46.183Z,101960.36
2018-10-03T21:55:39.282Z,101959.20
2018-10-03T22:00:37.905Z,101971.97
2018-10-03T22:05:31.015Z,101972.98
2018-10-03T22:10:23.911Z,101968.79
2018-10-03T22:15:16.899Z,101961.29
2018-10-03T22:20:10.036Z,101961.09
2018-10-03T22:25:03.094Z,101955.11
2018-10-03T22:29:56.102Z,101955.69
2018-10-03T22:34:49.105Z,101959.28
2018-10-03T22:39:42.003Z,101970.05
2018-10-03T22:44:35.079Z,101977.20
2018-10-03T22:49:27.882Z,101978.92
2018-10-03T22:54:20.505Z,101970.85
2018-10-03T22:59:13.235Z,101976.75
2018-10-03T23:04:06.135Z,101976.62
2018-10-03T23:08:58.799Z,101981.55
2018-10-03T23:13:51.444Z,101983.89
2018-10-03T23:18:44.048Z,101986.26
2018-10-03T23:23:36.678Z,101985.11
2018-10-03T23:28:29.343Z,101981.16
2018-10-03T23:33:21.987Z,101973.98
2018-10-03T23:38:14.650Z,101983.97
2018-10-03T23:43:07.262Z,101994.83
2018-10-03T23:47:59.927Z,101998.86
2018-10-03T23:52:52.725Z,102006.42
2018-10-03T23:57:45.301Z,102004.88
